M I D A S
Marine Information and Data Acquisition System
Tripno 365 of the Zeeleeuw from 2002-11-26 08:20:16 to 2002-11-26 14:46:04
Back to CruiseResearch ActivitiesStationsMapUnderway DataData graphs

EquipmentUnitsComments
TimeDGPSUTC
LatitudeDGPSDM.mWGS84
LongitudeDGPSDM.mWGS84
SpeedMeteo Stationm/sRelative wind speed
DirectionMeteo StationdegRelative wind direction
TemperatureMeteo Stationdeg CelciusAir temperature
PressureMeteo StationPaAtmospheric pressure
HumidityMeteo Station%Relative humidity
Missing or incorrect values are displayed as -999
Metereological data collected by the RV Zeeleeuw from 2002-11-26 08:20:16 to 2002-11-26 14:46:04
Time Latitude Longitude Speed Direction Temperature Pressure Humidity
2002-11-26 08:21 51°13.705 2°55.747 2.5 69 6.2 101260 90
2002-11-26 08:22 51°13.703 2°55.732 0.8 283 6.3 101260 91
2002-11-26 08:23 51°13.761 2°55.688 3.2 285 6.3 101260 91
2002-11-26 08:24 51°13.864 2°55.614 3.6 277 6.4 101260 91
2002-11-26 08:25 51°13.974 2°55.537 3.8 277 6.5 101270 91
2002-11-26 08:26 51°14.084 2°55.452 3.7 288 6.5 101260 91
2002-11-26 08:27 51°14.206 2°55.344 3.9 259 6.7 101270 91
2002-11-26 08:28 51°14.312 2°55.165 7.6 272 6.8 101260 91
2002-11-26 08:29 51°14.444 2°54.99 6.3 288 7 101260 91
2002-11-26 08:30 51°14.622 2°54.822 5.9 277 7 101260 91
2002-11-26 08:31 51°14.807 2°54.646 7.5 279 6.9 101270 90
2002-11-26 08:32 51°14.998 2°54.472 6.7 287 7.1 101260 91
2002-11-26 08:33 51°15.188 2°54.298 6.9 277 7.2 101270 91
2002-11-26 08:34 51°15.383 2°54.121 7.2 276 7.3 101280 91
2002-11-26 08:35 51°15.581 2°53.937 7.7 279 7.5 101270 91
2002-11-26 08:36 51°15.771 2°53.759 6.9 280 7.6 101260 91
2002-11-26 08:37 51°15.965 2°53.575 7.3 276 7.6 101270 91
2002-11-26 08:38 51°16.169 2°53.398 7.1 281 7.7 101270 91
2002-11-26 08:39 51°16.376 2°53.222 6.5 281 7.9 101270 91
2002-11-26 08:40 51°16.586 2°53.044 6.6 285 8 101270 91
2002-11-26 08:41 51°16.789 2°52.875 7.1 283 8.2 101270 91
2002-11-26 08:42 51°16.993 2°52.705 8.1 283 8.4 101260 91
2002-11-26 08:43 51°17.2 2°52.534 8.9 284 8.7 101270 91
2002-11-26 08:44 51°17.408 2°52.36 8.7 281 8.8 101260 91
2002-11-26 08:45 51°17.591 2°52.124 10.4 276 9 101260 91
2002-11-26 08:46 51°17.737 2°51.824 12.3 265 9.1 101250 90
2002-11-26 08:47 51°17.862 2°51.511 11.4 267 9.2 101260 90
2002-11-26 08:48 51°17.993 2°51.193 11.4 262 9.3 101250 90
2002-11-26 08:49 51°18.125 2°50.878 12.5 265 9.3 101260 89
2002-11-26 08:50 51°18.256 2°50.56 11.6 264 9.4 101250 88
2002-11-26 08:51 51°18.39 2°50.245 12.3 260 9.5 101250 87
2002-11-26 08:52 51°18.524 2°49.932 11.9 264 9.5 101250 86
2002-11-26 08:53 51°18.658 2°49.619 11.5 266 9.6 101240 86
2002-11-26 08:54 51°18.792 2°49.305 11.1 262 9.6 101260 85
2002-11-26 08:55 51°18.928 2°48.987 12.2 263 9.6 101240 84
2002-11-26 08:56 51°19.065 2°48.666 12.2 265 9.7 101250 84
2002-11-26 08:57 51°19.199 2°48.349 11.5 268 9.7 101230 83
2002-11-26 08:58 51°19.332 2°48.032 12 266 9.7 101250 82
2002-11-26 08:59 51°19.466 2°47.717 11.3 262 9.7 101250 82
2002-11-26 09:00 51°19.601 2°47.403 10.4 263 9.7 101260 82
2002-11-26 09:01 51°19.729 2°47.084 11.8 260 9.7 101260 81
2002-11-26 09:02 51°19.815 2°46.728 12 264 9.8 101260 81
2002-11-26 09:03 51°19.897 2°46.37 12.3 264 9.8 101250 81
2002-11-26 09:04 51°19.971 2°46.005 11.4 259 9.8 101260 82
2002-11-26 09:05 51°20.048 2°45.637 12.5 262 9.9 101250 83
2002-11-26 09:06 51°20.123 2°45.269 12.1 267 9.9 101260 83
2002-11-26 09:07 51°20.195 2°44.904 12.2 268 9.9 101250 83
2002-11-26 09:08 51°20.27 2°44.542 13 261 9.8 101270 84
2002-11-26 09:09 51°20.333 2°44.175 14.1 261 9.7 101260 83
2002-11-26 09:10 51°20.386 2°43.798 14.5 262 9.7 101260 84
2002-11-26 09:11 51°20.437 2°43.433 14 259 9.7 101260 84
2002-11-26 09:12 51°20.491 2°43.059 13.4 264 9.8 101260 84
2002-11-26 09:13 51°20.544 2°42.685 13.8 261 9.6 101260 84
2002-11-26 09:14 51°20.599 2°42.31 14 262 9.6 101250 84
2002-11-26 09:15 51°20.654 2°41.931 14.1 265 9.6 101260 84
2002-11-26 09:16 51°20.711 2°41.547 13.9 263 9.6 101260 84
2002-11-26 09:17 51°20.766 2°41.172 14.2 265 9.6 101260 84
2002-11-26 09:18 51°20.822 2°40.798 14.1 263 9.6 101250 84
2002-11-26 09:19 51°20.878 2°40.422 13.3 263 9.6 101270 84
2002-11-26 09:20 51°20.934 2°40.055 13.4 263 9.7 101270 84
2002-11-26 09:21 51°20.999 2°39.687 12.8 264 9.6 101280 84
2002-11-26 09:22 51°21.079 2°39.326 11.8 274 9.6 101270 84
2002-11-26 09:23 51°21.193 2°38.992 11 274 9.6 101280 84
2002-11-26 09:24 51°21.38 2°38.751 7.1 285 9.6 101280 83
2002-11-26 09:25 51°21.593 2°38.605 6.1 281 9.7 101290 83
2002-11-26 09:26 51°21.817 2°38.499 5.4 283 9.7 101300 83
2002-11-26 09:27 51°22.041 2°38.387 7 293 9.8 101300 83
2002-11-26 09:28 51°22.262 2°38.27 5.8 293 9.8 101300 83
2002-11-26 09:29 51°22.485 2°38.15 6.2 295 9.8 101300 83
2002-11-26 09:30 51°22.706 2°38.031 6.9 296 9.9 101300 83
2002-11-26 09:31 51°22.929 2°37.908 5.7 291 9.9 101290 83
2002-11-26 09:32 51°23.15 2°37.786 5.9 297 10 101300 83
2002-11-26 09:33 51°23.37 2°37.656 6.3 290 10 101300 83
2002-11-26 09:34 51°23.589 2°37.528 5.2 303 10 101300 83
2002-11-26 09:35 51°23.808 2°37.392 6.5 289 10 101300 83
2002-11-26 09:36 51°24.018 2°37.223 8.1 302 9.9 101290 82
2002-11-26 09:37 51°24.225 2°37.037 7.6 287 10 101290 83
2002-11-26 09:38 51°24.429 2°36.85 7.5 285 9.9 101290 83
2002-11-26 09:39 51°24.638 2°36.673 7 291 10 101290 83
2002-11-26 09:40 51°24.851 2°36.516 6.6 296 9.9 101280 83
2002-11-26 09:41 51°25.076 2°36.392 6.2 296 9.9 101290 83
2002-11-26 09:42 51°25.291 2°36.269 5.5 297 9.9 101280 83
2002-11-26 09:43 51°25.512 2°36.147 6.4 300 10 101290 83
2002-11-26 09:44 51°25.736 2°36.023 5.2 295 10 101280 83
2002-11-26 09:45 51°25.953 2°35.902 5.6 288 10 101290 83
2002-11-26 09:46 51°26.175 2°35.78 6.3 290 10 101280 83
2002-11-26 09:47 51°26.396 2°35.656 5.3 298 10.1 101280 83
2002-11-26 09:48 51°26.617 2°35.529 4.8 287 10.1 101290 83
2002-11-26 09:49 51°26.832 2°35.406 6.4 301 10.2 101290 83
2002-11-26 09:50 51°27.05 2°35.278 6.4 292 10.2 101290 83
2002-11-26 09:51 51°27.269 2°35.149 4.2 315 10.3 101290 83
2002-11-26 09:52 51°27.486 2°35.02 5.5 288 10.3 101280 83
2002-11-26 09:53 51°27.708 2°34.887 5.1 304 10.3 101280 83
2002-11-26 09:54 51°27.921 2°34.758 7.6 297 10.3 101290 83
2002-11-26 09:55 51°28.137 2°34.631 6.7 300 10.4 101300 82
2002-11-26 09:56 51°28.36 2°34.518 3.3 304 10.4 101280 82
2002-11-26 09:57 51°28.582 2°34.532 1.2 295 10.4 101300 82
2002-11-26 09:58 51°28.793 2°34.665 1.1 300 10.5 101290 82
2002-11-26 09:59 51°28.987 2°34.847 2.4 177 10.6 101290 82
2002-11-26 10:00 51°29.132 2°35.121 5 174 10.6 101300 81
2002-11-26 10:01 51°29.221 2°35.45 4 171 10.5 101290 81
2002-11-26 10:02 51°29.308 2°35.771 6 172 10.5 101300 81
2002-11-26 10:03 51°29.396 2°36.103 4.9 175 10.4 101290 82
2002-11-26 10:04 51°29.484 2°36.42 5 155 10.3 101280 83
2002-11-26 10:05 51°29.571 2°36.744 5.3 170 10.3 101290 83
2002-11-26 10:06 51°29.66 2°37.074 5.1 159 10.3 101290 83
2002-11-26 10:07 51°29.801 2°37.327 0.9 184 10.2 101300 83
2002-11-26 10:08 51°29.986 2°37.519 0.9 223 10.2 101300 83
2002-11-26 10:09 51°30.165 2°37.72 1.4 197 10.2 101310 83
2002-11-26 10:10 51°30.345 2°37.933 1.5 173 10.3 101300 83
2002-11-26 10:11 51°30.524 2°38.143 1.6 166 10.4 101300 83
2002-11-26 10:12 51°30.7 2°38.353 0.9 179 10.4 101310 83
2002-11-26 10:13 51°30.874 2°38.567 0.8 163 10.3 101300 83
2002-11-26 10:14 51°31.052 2°38.781 1.7 192 10.4 101310 83
2002-11-26 10:15 51°31.233 2°38.999 2.4 168 10.4 101300 83
2002-11-26 10:16 51°31.41 2°39.212 1.9 168 10.4 101310 83
2002-11-26 10:17 51°31.602 2°39.38 0.9 288 10.3 101310 83
2002-11-26 10:18 51°31.819 2°39.468 1.1 280 10.2 101310 83
2002-11-26 10:19 51°32.033 2°39.555 1.8 276 10.3 101310 83
2002-11-26 10:20 51°32.252 2°39.647 1.3 291 10.3 101310 83
2002-11-26 10:21 51°32.474 2°39.74 2 293 10.4 101310 83
2002-11-26 10:22 51°32.688 2°39.832 1.6 282 10.5 101310 83
2002-11-26 10:23 51°32.905 2°39.925 0.9 340 10.5 101320 83
2002-11-26 10:24 51°33.122 2°40.019 1.4 298 10.6 101310 83
2002-11-26 10:25 51°33.34 2°40.107 1.8 320 10.6 101310 83
2002-11-26 10:26 51°33.563 2°40.129 3.5 327 10.6 101320 83
2002-11-26 10:27 51°33.788 2°40.138 3.7 309 10.6 101310 83
2002-11-26 10:28 51°34.004 2°40.03 8.6 289 10.6 101300 83
2002-11-26 10:29 51°34.167 2°39.767 9.5 278 10.6 101290 83
2002-11-26 10:30 51°34.302 2°39.446 11 276 10.6 101290 82
2002-11-26 10:31 51°34.438 2°39.139 11.3 279 10.6 101270 82
2002-11-26 10:32 51°34.58 2°38.826 10.6 275 10.6 101270 82
2002-11-26 10:33 51°34.718 2°38.519 10.4 280 10.7 101270 82
2002-11-26 10:34 51°34.87 2°38.239 8.5 291 10.7 101270 82
2002-11-26 10:35 51°35.074 2°38.099 5.3 292 10.7 101270 82
2002-11-26 10:36 51°35.296 2°38.093 4 272 10.7 101290 82
2002-11-26 10:37 51°35.514 2°38.137 3.3 284 10.8 101290 82
2002-11-26 10:38 51°35.735 2°38.216 3.5 298 10.8 101290 82
2002-11-26 10:39 51°35.946 2°38.323 1.2 291 10.8 101280 81
2002-11-26 10:40 51°36.152 2°38.455 1.7 306 10.9 101280 81
2002-11-26 10:41 51°36.358 2°38.587 1.5 287 10.9 101290 81
2002-11-26 10:42 51°36.561 2°38.717 1.1 257 10.9 101280 81
2002-11-26 10:43 51°36.768 2°38.849 1.1 279 11 101280 81
2002-11-26 10:44 51°36.974 2°38.981 2.3 296 11 101280 81
2002-11-26 10:45 51°37.176 2°39.137 0.9 128 11.1 101290 81
2002-11-26 10:46 51°37.313 2°39.405 2.2 173 11.1 101280 80
2002-11-26 10:47 51°37.446 2°39.688 2.4 160 11 101280 80
2002-11-26 10:48 51°37.577 2°39.969 3.9 166 10.9 101280 81
2002-11-26 10:49 51°37.709 2°40.248 2.4 157 10.9 101280 80
2002-11-26 10:50 51°37.84 2°40.526 2.6 181 10.9 101290 80
2002-11-26 10:51 51°37.971 2°40.808 3.3 186 10.8 101270 80
2002-11-26 10:52 51°38.055 2°41.118 4.7 158 10.9 101270 81
2002-11-26 10:53 51°38.14 2°41.444 5.3 156 10.8 101280 81
2002-11-26 10:54 51°38.257 2°41.723 2.7 160 10.8 101270 81
2002-11-26 10:55 51°38.422 2°41.936 0.9 173 10.8 101280 81
2002-11-26 10:56 51°38.592 2°42.149 2 181 10.8 101270 82
2002-11-26 10:57 51°38.761 2°42.366 0.8 167 10.8 101270 81
2002-11-26 10:58 51°38.93 2°42.587 2.1 195 10.9 101270 82
2002-11-26 10:59 51°39.098 2°42.81 2.5 145 10.9 101280 82
2002-11-26 11:00 51°39.267 2°43.028 0.4 138 10.9 101270 82
2002-11-26 11:01 51°39.478 2°43.056 4.6 289 10.9 101270 82
2002-11-26 11:02 51°39.687 2°42.939 6.5 296 11 101260 82
2002-11-26 11:03 51°39.895 2°42.811 7.6 296 11 101250 82
2002-11-26 11:04 51°40.097 2°42.65 8.3 289 11 101250 81
2002-11-26 11:05 51°40.281 2°42.437 9.4 290 11 101250 81
2002-11-26 11:06 51°40.446 2°42.178 9.7 282 11.1 101240 81
2002-11-26 11:07 51°40.605 2°41.896 9.7 287 11.1 101240 81
2002-11-26 11:08 51°40.76 2°41.625 8.8 276 11.1 101240 80
2002-11-26 11:09 51°40.904 2°41.333 10.3 283 11.2 101240 80
2002-11-26 11:10 51°41.025 2°41.011 10.3 281 11.1 101230 81
2002-11-26 11:11 51°41.151 2°40.695 11.1 275 11.1 101230 81
2002-11-26 11:12 51°41.278 2°40.379 11.6 280 11 101240 80
2002-11-26 11:13 51°41.405 2°40.062 10.3 285 11 101230 81
2002-11-26 11:14 51°41.531 2°39.75 10 277 11.1 101230 81
2002-11-26 11:15 51°41.659 2°39.44 10.2 276 11.1 101230 82
2002-11-26 11:16 51°41.786 2°39.129 10.5 279 11 101230 82
2002-11-26 11:17 51°41.915 2°38.818 10.7 278 11 101240 81
2002-11-26 11:18 51°42.043 2°38.506 9.4 282 11.1 101230 82
2002-11-26 11:19 51°42.172 2°38.196 9.1 280 11.1 101230 82
2002-11-26 11:20 51°42.302 2°37.879 9.9 284 11.1 101230 82
2002-11-26 11:21 51°42.428 2°37.571 9.8 286 11.1 101230 82
2002-11-26 11:22 51°42.557 2°37.259 10.1 287 11.1 101230 83
2002-11-26 11:23 51°42.687 2°36.948 11.2 287 11.1 101230 83
2002-11-26 11:24 51°42.711 2°36.598 14.2 253 11.2 101210 83
2002-11-26 11:25 51°42.545 2°36.308 14.7 238 11.2 101220 83
2002-11-26 11:26 51°42.359 2°36.043 16.3 238 11.2 101210 82
2002-11-26 11:27 51°42.162 2°35.791 16.5 240 11.2 101220 83
2002-11-26 11:28 51°41.97 2°35.529 14.9 239 11.2 101210 82
2002-11-26 11:29 51°41.778 2°35.268 16.1 238 11.2 101210 82
2002-11-26 11:30 51°41.583 2°35.01 15.2 243 11.2 101210 81
2002-11-26 11:31 51°41.39 2°34.751 15.7 246 11.3 101210 82
2002-11-26 11:32 51°41.195 2°34.491 14.7 239 11.3 101210 82
2002-11-26 11:33 51°41.004 2°34.223 16.6 239 11.3 101210 82
2002-11-26 11:34 51°40.813 2°33.957 15.4 235 11.3 101210 80
2002-11-26 11:35 51°40.623 2°33.69 15.8 239 11.3 101200 79
2002-11-26 11:36 51°40.433 2°33.423 16.9 239 11.4 101210 79
2002-11-26 11:37 51°40.24 2°33.156 16 234 11.4 101210 79
2002-11-26 11:38 51°40.054 2°32.898 15.3 234 11.4 101210 79
2002-11-26 11:39 51°39.865 2°32.635 14.2 236 11.4 101210 79
2002-11-26 11:40 51°39.677 2°32.371 16.9 239 11.4 101210 79
2002-11-26 11:41 51°39.487 2°32.101 14.8 237 11.4 101210 78
2002-11-26 11:42 51°39.299 2°31.831 14.5 239 11.4 101210 79
2002-11-26 11:43 51°39.11 2°31.564 16.8 234 11.5 101210 80
2002-11-26 11:44 51°38.922 2°31.297 15.2 237 11.5 101220 79
2002-11-26 11:45 51°38.734 2°31.026 15.6 238 11.4 101210 79
2002-11-26 11:46 51°38.546 2°30.756 15.4 240 11.5 101210 80
2002-11-26 11:47 51°38.356 2°30.49 15.2 234 11.5 101220 80
2002-11-26 11:48 51°38.166 2°30.226 16.5 236 11.4 101220 78
2002-11-26 11:49 51°37.975 2°29.961 16.1 242 11.5 101210 79
2002-11-26 11:50 51°37.779 2°29.706 17.2 234 11.5 101220 79
2002-11-26 11:51 51°37.585 2°29.446 16.2 239 11.5 101220 78
2002-11-26 11:52 51°37.393 2°29.187 15.1 234 11.5 101220 78
2002-11-26 11:53 51°37.196 2°28.923 14.3 230 11.6 101220 78
2002-11-26 11:54 51°37.004 2°28.667 17 235 11.6 101210 78
2002-11-26 11:55 51°36.808 2°28.408 15.2 238 11.6 101220 78
2002-11-26 11:56 51°36.612 2°28.149 15.8 239 11.6 101210 78
2002-11-26 11:57 51°36.411 2°27.895 13.6 233 11.6 101210 78
2002-11-26 11:58 51°36.205 2°27.64 15.1 236 11.6 101210 79
2002-11-26 11:59 51°36.007 2°27.393 16.3 240 11.6 101210 79
2002-11-26 12:00 51°35.807 2°27.139 15.3 238 11.6 101210 80
2002-11-26 12:01 51°35.6 2°26.885 14.6 238 11.6 101220 79
2002-11-26 12:02 51°35.398 2°26.644 15.4 235 11.6 101210 79
2002-11-26 12:03 51°35.185 2°26.401 14.1 233 11.5 101230 79
2002-11-26 12:04 51°34.973 2°26.184 14.9 235 11.5 101220 78
2002-11-26 12:05 51°34.758 2°25.944 15.2 232 11.5 101230 78
2002-11-26 12:06 51°34.55 2°25.715 16.2 234 11.5 101220 78
2002-11-26 12:07 51°34.328 2°25.493 14 238 11.5 101230 78
2002-11-26 12:08 51°34.115 2°25.278 15.2 233 11.5 101220 78
2002-11-26 12:09 51°33.898 2°25.061 14.5 237 11.6 101210 78
2002-11-26 12:10 51°33.677 2°24.843 15.7 232 11.6 101220 78
2002-11-26 12:11 51°33.464 2°24.614 16.4 233 11.6 101230 78
2002-11-26 12:12 51°33.259 2°24.385 14.4 237 11.6 101230 79
2002-11-26 12:13 51°33.052 2°24.152 15.7 235 11.6 101210 79
2002-11-26 12:14 51°32.846 2°23.921 14.6 236 11.6 101230 79
2002-11-26 12:15 51°32.641 2°23.686 14.1 240 11.6 101230 80
2002-11-26 12:16 51°32.44 2°23.44 13.7 244 11.7 101230 81
2002-11-26 12:17 51°32.234 2°23.192 15.3 236 11.6 101220 80
2002-11-26 12:18 51°32.034 2°22.95 14.7 238 11.6 101230 81
2002-11-26 12:19 51°31.836 2°22.71 15 236 11.7 101220 81
2002-11-26 12:20 51°31.641 2°22.476 16.4 240 11.7 101230 82
2002-11-26 12:21 51°31.432 2°22.28 15.3 218 11.7 101230 82
2002-11-26 12:22 51°31.22 2°22.397 10.5 186 11.5 101200 81
2002-11-26 12:23 51°31.083 2°22.69 8 187 11.4 101230 82
2002-11-26 12:24 51°30.947 2°22.989 9 186 11.3 101240 82
2002-11-26 12:25 51°30.806 2°23.283 8.6 187 11.3 101240 82
2002-11-26 12:26 51°30.66 2°23.572 8.6 190 11.3 101240 82
2002-11-26 12:27 51°30.513 2°23.862 8.9 186 11.3 101230 83
2002-11-26 12:28 51°30.369 2°24.155 9.7 185 11.3 101230 82
2002-11-26 12:29 51°30.228 2°24.449 9.2 180 11.3 101240 83
2002-11-26 12:30 51°30.086 2°24.742 9.2 182 11.3 101240 83
2002-11-26 12:31 51°29.945 2°25.036 8.7 184 11.3 101240 83
2002-11-26 12:32 51°29.806 2°25.337 8.5 186 11.3 101230 83
2002-11-26 12:33 51°29.67 2°25.642 9.8 185 11.3 101240 84
2002-11-26 12:34 51°29.532 2°25.946 7.9 184 11.2 101250 83
2002-11-26 12:35 51°29.391 2°26.246 9.6 194 11.2 101250 83
2002-11-26 12:36 51°29.25 2°26.553 9 183 11.1 101240 83
2002-11-26 12:37 51°29.114 2°26.848 8.7 185 11.1 101240 83
2002-11-26 12:38 51°28.997 2°27.09 7.8 166 11.1 101260 83
2002-11-26 12:39 51°28.932 2°27.17 7.8 173 11.2 101270 84
2002-11-26 12:40 51°28.916 2°27.17 6.6 167 11.1 101270 84
2002-11-26 12:41 51°28.91 2°27.166 6.6 165 11.2 101270 84
2002-11-26 12:42 51°28.902 2°27.163 7.3 165 11.3 101270 85
2002-11-26 12:43 51°28.896 2°27.161 6.3 145 11.3 101270 85
2002-11-26 12:44 51°28.888 2°27.161 5.9 129 11.4 101280 85
2002-11-26 12:45 51°28.879 2°27.162 6.1 147 11.4 101270 85
2002-11-26 12:46 51°28.838 2°27.241 8.5 178 11.3 101270 84
2002-11-26 12:47 51°28.668 2°27.377 13.3 212 11.2 101250 83
2002-11-26 12:48 51°28.433 2°27.343 13.9 222 11.1 101260 83
2002-11-26 12:49 51°28.193 2°27.259 14.9 225 11.1 101250 83
2002-11-26 12:50 51°27.956 2°27.163 13.3 224 11.1 101250 83
2002-11-26 12:51 51°27.717 2°27.062 13.8 226 11.1 101260 83
2002-11-26 12:52 51°27.478 2°26.952 13.5 222 11.1 101250 83
2002-11-26 12:53 51°27.238 2°26.841 14.8 229 11.1 101260 83
2002-11-26 12:54 51°26.998 2°26.728 14.7 225 11.1 101250 83
2002-11-26 12:55 51°26.757 2°26.621 14.9 227 11.1 101260 83
2002-11-26 12:56 51°26.519 2°26.507 16.3 228 11.1 101260 83
2002-11-26 12:57 51°26.28 2°26.399 14.2 225 11.1 101270 83
2002-11-26 12:58 51°26.041 2°26.289 15.2 229 11 101250 83
2002-11-26 12:59 51°25.803 2°26.179 14.8 228 11 101250 84
2002-11-26 13:00 51°25.557 2°26.067 14.9 231 11 101250 84
2002-11-26 13:01 51°25.325 2°25.965 15.1 228 11 101260 84
2002-11-26 13:02 51°25.08 2°25.864 15.5 229 11 101240 84
2002-11-26 13:03 51°24.842 2°25.765 13.8 230 11 101240 84
2002-11-26 13:04 51°24.599 2°25.663 15.4 228 11 101220 84
2002-11-26 13:05 51°24.353 2°25.56 15.1 231 10.9 101220 84
2002-11-26 13:06 51°24.115 2°25.461 14.8 232 10.9 101240 84
2002-11-26 13:07 51°23.876 2°25.362 16.5 234 10.9 101240 85
2002-11-26 13:08 51°23.638 2°25.264 16.6 231 10.8 101230 84
2002-11-26 13:09 51°23.401 2°25.166 16.6 231 10.8 101220 84
2002-11-26 13:10 51°23.17 2°25.195 13.7 210 10.8 101250 84
2002-11-26 13:11 51°23.008 2°25.451 12.1 197 10.8 101250 84
2002-11-26 13:12 51°22.894 2°25.775 12.3 200 10.7 101260 85
2002-11-26 13:13 51°22.766 2°26.09 11.4 201 10.7 101260 85
2002-11-26 13:14 51°22.636 2°26.41 11.7 198 10.6 101260 85
2002-11-26 13:15 51°22.526 2°26.737 9.9 199 10.5 101260 85
2002-11-26 13:16 51°22.434 2°27.075 10.2 194 10.5 101270 85
2002-11-26 13:17 51°22.343 2°27.414 9.5 198 10.5 101260 85
2002-11-26 13:18 51°22.259 2°27.752 10.2 196 10.5 101260 86
2002-11-26 13:19 51°22.181 2°28.107 8.3 186 10.5 101270 86
2002-11-26 13:20 51°22.127 2°28.469 10.2 194 10.4 101270 85
2002-11-26 13:21 51°22.078 2°28.815 10.4 191 10.4 101280 86
2002-11-26 13:22 51°22.026 2°29.178 8.9 190 10.3 101270 85
2002-11-26 13:23 51°21.973 2°29.53 8.9 189 10.3 101270 86
2002-11-26 13:24 51°21.921 2°29.889 8.5 187 10.3 101270 86
2002-11-26 13:25 51°21.865 2°30.259 9.8 194 10.3 101270 86
2002-11-26 13:26 51°21.813 2°30.607 8.3 193 10.2 101270 86
2002-11-26 13:27 51°21.761 2°30.967 9.7 192 10.2 101270 86
2002-11-26 13:28 51°21.708 2°31.328 8.5 191 10.2 101280 86
2002-11-26 13:29 51°21.652 2°31.694 8.1 196 10.1 101280 86
2002-11-26 13:30 51°21.596 2°32.058 9.1 191 10.2 101270 86
2002-11-26 13:31 51°21.537 2°32.421 9.5 198 10.1 101280 86
2002-11-26 13:32 51°21.475 2°32.785 9.7 189 10.1 101280 86
2002-11-26 13:33 51°21.415 2°33.151 9.8 192 10.1 101280 87
2002-11-26 13:34 51°21.361 2°33.518 9 195 10.1 101280 86
2002-11-26 13:35 51°21.305 2°33.893 9.3 190 10 101280 86
2002-11-26 13:36 51°21.249 2°34.269 9.1 197 10.1 101280 87
2002-11-26 13:37 51°21.199 2°34.623 9.2 191 10 101290 87
2002-11-26 13:38 51°21.143 2°34.988 8.4 193 10 101290 87
2002-11-26 13:39 51°21.091 2°35.351 8.5 188 10 101280 87
2002-11-26 13:40 51°21.047 2°35.718 8.9 181 9.9 101280 87
2002-11-26 13:41 51°20.999 2°36.089 8.7 192 9.9 101290 87
2002-11-26 13:42 51°20.957 2°36.468 7.1 186 9.9 101280 87
2002-11-26 13:43 51°20.919 2°36.837 7.8 188 9.9 101290 87
2002-11-26 13:44 51°20.881 2°37.212 8.6 189 10 101280 87
2002-11-26 13:45 51°20.842 2°37.587 7.3 189 9.9 101290 87
2002-11-26 13:46 51°20.805 2°37.963 8.8 190 9.9 101300 87
2002-11-26 13:47 51°20.766 2°38.337 7.6 187 9.9 101290 87
2002-11-26 13:48 51°20.729 2°38.712 9 185 9.8 101290 88
2002-11-26 13:49 51°20.691 2°39.09 7.9 189 9.8 101290 88
2002-11-26 13:50 51°20.642 2°39.471 10.1 194 9.8 101300 88
2002-11-26 13:51 51°20.576 2°39.832 8.2 188 9.7 101290 88
2002-11-26 13:52 51°20.511 2°40.2 9.1 195 9.7 101300 88
2002-11-26 13:53 51°20.447 2°40.571 9.3 196 9.7 101300 88
2002-11-26 13:54 51°20.384 2°40.947 9.7 194 9.6 101300 88
2002-11-26 13:55 51°20.322 2°41.312 7.7 194 9.6 101290 88
2002-11-26 13:56 51°20.26 2°41.685 8.8 191 9.6 101290 88
2002-11-26 13:57 51°20.199 2°42.059 8.9 186 9.6 101300 88
2002-11-26 13:58 51°20.138 2°42.435 8.3 193 9.6 101300 88
2002-11-26 13:59 51°20.076 2°42.815 7.6 191 9.5 101310 88
2002-11-26 14:00 51°20.015 2°43.181 8.8 181 9.5 101310 88
2002-11-26 14:01 51°19.953 2°43.553 8.5 182 9.5 101300 88
2002-11-26 14:02 51°19.893 2°43.923 8 183 9.5 101320 88
2002-11-26 14:03 51°19.833 2°44.294 7.3 183 9.5 101310 88
2002-11-26 14:04 51°19.77 2°44.662 8.2 182 9.6 101320 88
2002-11-26 14:05 51°19.689 2°45.026 7.9 192 9.6 101320 88
2002-11-26 14:06 51°19.614 2°45.389 7.1 186 9.6 101320 88
2002-11-26 14:07 51°19.538 2°45.761 7.7 182 9.6 101330 89
2002-11-26 14:08 51°19.466 2°46.119 8.6 179 9.7 101330 89
2002-11-26 14:09 51°19.395 2°46.479 8 192 9.7 101320 89
2002-11-26 14:10 51°19.312 2°46.826 10.5 192 9.7 101320 89
2002-11-26 14:11 51°19.223 2°47.179 11.3 194 9.7 101310 89
2002-11-26 14:12 51°19.131 2°47.517 11.5 196 9.6 101310 89
2002-11-26 14:13 51°19.026 2°47.862 11.5 197 9.5 101310 89
2002-11-26 14:14 51°18.922 2°48.204 10.1 195 9.4 101310 89
2002-11-26 14:15 51°18.816 2°48.544 10.9 196 9.3 101320 90
2002-11-26 14:16 51°18.697 2°48.873 10.5 199 9.2 101310 90
2002-11-26 14:17 51°18.579 2°49.205 10.7 193 9.1 101320 90
2002-11-26 14:18 51°18.46 2°49.537 9.8 191 9 101310 90
2002-11-26 14:19 51°18.343 2°49.863 11.2 193 9 101320 90
2002-11-26 14:20 51°18.227 2°50.188 10.7 197 8.9 101330 90
2002-11-26 14:21 51°18.109 2°50.512 9.8 196 8.8 101330 90
2002-11-26 14:22 51°17.992 2°50.844 11.3 192 8.7 101320 90
2002-11-26 14:23 51°17.875 2°51.172 10.2 189 8.6 101330 91
2002-11-26 14:24 51°17.76 2°51.493 9.7 192 8.4 101340 91
2002-11-26 14:25 51°17.63 2°51.804 10.7 189 8.2 101340 91
2002-11-26 14:26 51°17.481 2°52.103 10 190 8.1 101350 91
2002-11-26 14:27 51°17.322 2°52.365 12.7 198 8 101340 92
2002-11-26 14:28 51°17.137 2°52.586 13.8 202 8 101340 92
2002-11-26 14:29 51°16.941 2°52.791 12.5 214 8.1 101350 92
2002-11-26 14:30 51°16.737 2°52.977 14.2 215 8 101340 92
2002-11-26 14:31 51°16.526 2°53.135 13.1 218 8.1 101350 93
2002-11-26 14:32 51°16.306 2°53.238 13.1 217 8.1 101340 93
2002-11-26 14:33 51°16.083 2°53.332 12.8 215 8.1 101350 93
2002-11-26 14:34 51°15.87 2°53.462 12.6 215 8.1 101350 93
2002-11-26 14:35 51°15.652 2°53.578 12.8 221 8.2 101360 93
2002-11-26 14:36 51°15.442 2°53.728 13.1 218 8.2 101360 93
2002-11-26 14:37 51°15.249 2°53.929 12.8 213 8.2 101360 93
2002-11-26 14:38 51°15.072 2°54.156 10.2 214 8.2 101370 93
2002-11-26 14:39 51°14.901 2°54.33 9.6 217 8.2 101370 93
2002-11-26 14:40 51°14.734 2°54.502 10.2 202 8.2 101370 93
2002-11-26 14:41 51°14.591 2°54.719 9.8 209 8.2 101370 93
2002-11-26 14:42 51°14.446 2°54.942 9.6 209 8.2 101370 93
2002-11-26 14:43 51°14.315 2°55.188 7.8 207 8.2 101380 93
2002-11-26 14:44 51°14.211 2°55.336 6 210 8.3 101380 93
2002-11-26 14:45 51°14.124 2°55.417 6.8 209 8.3 101380 93